< Cyclone 202237 2023 Season
Cyclone 202301 (noname)
General InformationTrack Information on Google MapsDetailed Wind InformationList of All Images || ResourceGoogle EarthGE AnimationAtom FeedGeoJSON
Detalied Best Track (Time Zone = UTC)
Year Month Day Hour Lat. Long. Pressure (hPa) Wind (kt) Class Image Chart
2022 7 27 00 -7.4 92.0 1006 15 2 Image --
2022 7 27 06 -8.0 92.2 1006 15 2 Image --
2022 7 27 12 -8.5 92.5 1005 20 2 Image --
2022 7 27 18 -8.7 93.1 1005 25 2 Image --
2022 7 28 00 -9.1 93.8 1004 25 2 Image --
2022 7 28 06 -9.5 93.9 1003 25 2 Image --
2022 7 28 12 -10.1 94.4 996 35 3 Image --
2022 7 28 18 -10.3 94.6 994 35 3 Image --
2022 7 29 00 -10.9 94.9 998 40 3 Image --
2022 7 29 06 -11.6 94.7 996 45 3 Image --
2022 7 29 12 -12.1 94.5 994 45 3 Image --
2022 7 29 18 -12.6 94.2 994 40 3 Image --
2022 7 30 00 -13.2 93.8 994 40 3 Image --
2022 7 30 06 -13.5 93.3 993 40 3 Image --
2022 7 30 12 -13.9 92.9 997 35 3 Image --
2022 7 30 18 -13.9 92.6 997 35 3 Image --
2022 7 31 00 -13.8 92.3 998 35 3 Image --
2022 7 31 06 -13.7 91.9 1000 35 3 Image --
2022 7 31 12 -13.7 91.6 1000 35 3 Image --
2022 7 31 18 -13.4 91.2 1001 35 3 Image --
2022 8 1 00 -13.1 90.5 1001 35 3 Image --
2022 8 1 06 -13.0 89.8 1001 35 3 Image --
< Cyclone 202237 2023 Season

Help